Pineville, South Carolina
Current Conditions -  °F | °C
As of 11:35 PM on Sunday 23 Nov 2014 (Local Time) from KMKS Reporting Station
Clear Clear  
Wind Chill: 68°   Ceiling: Unl
Heat Index: 68°   Visibility: 10mi
Dew Point: 68°   Wind: 6mph
Humidity: 100%   Direction: 220°SW
Pressure: 29.79"   Gusts: NA
Location:  33.43°N, 80.02°W
Report Text: KMKS 240435Z AUTO 22005KT 10SM CLR 20/20 A2979 RMK AO2 LTG DSNT E THRU SW
Loading
Personal Weather Stations






























Interactive Weather Map New forecast layout! Learn more

10-Day Weather Forecast

Advertisements
Track Severe Weather on mobile